Time;durP1;ratioP1;P1;durP2;ratioP2;P2;SDS_P1;SDS_P2;PMS_P1;PMS_P2;Temp;Humidity;BMP_temperature;BMP_pressure;BME280_temperature;BME280_humidity;BME280_pressure;Samples;Min_cycle;Max_cycle;Signal;HPM_P1;HPM_P2
2023/12/01 00:01:05;;;;;;;;;50.75;41.00;;;;;6.91;73.15;99763.53;5079344;28;50664;-49
2023/12/01 00:03:30;;;;;;;;;51.50;40.75;;;;;6.90;73.80;99764.50;5079008;28;45323;-48
2023/12/01 00:05:55;;;;;;;;;49.25;38.00;;;;;6.84;73.63;99749.25;5078703;28;45851;-51
2023/12/01 00:08:21;;;;;;;;;50.25;38.75;;;;;6.88;73.49;99761.19;5079353;28;45485;-46
2023/12/01 00:10:46;;;;;;;;;59.25;42.25;;;;;6.90;73.22;99761.88;5077487;28;45914;-47
2023/12/01 00:13:11;;;;;;;;;51.25;41.00;;;;;6.86;73.64;99753.41;5078696;28;45517;-47
2023/12/01 00:15:36;;;;;;;;;54.25;37.25;;;;;6.88;73.12;99761.19;5078963;28;45395;-47
2023/12/01 00:18:02;;;;;;;;;52.00;38.25;;;;;6.86;73.48;99757.84;5078802;28;45403;-45
2023/12/01 00:20:27;;;;;;;;;61.75;44.50;;;;;6.80;74.06;99745.25;5078784;28;46026;-47
2023/12/01 00:22:53;;;;;;;;;43.75;30.75;;;;;6.83;73.82;99759.00;5078778;28;45351;-48
2023/12/01 00:25:18;;;;;;;;;61.50;43.25;;;;;6.73;73.86;99740.53;5078864;28;45370;-49
2023/12/01 00:27:44;;;;;;;;;47.25;40.25;;;;;6.84;74.30;99747.44;5078932;28;45322;-47
2023/12/01 00:30:09;;;;;;;;;54.50;37.25;;;;;6.71;74.30;99726.63;5078719;28;46034;-49
2023/12/01 00:32:35;;;;;;;;;59.50;45.25;;;;;6.87;74.54;99759.50;5078530;28;45412;-48
2023/12/01 00:35:00;;;;;;;;;60.50;45.00;;;;;6.89;74.21;99757.56;5078527;28;45293;-48
2023/12/01 00:37:25;;;;;;;;;58.50;44.00;;;;;6.89;74.68;99766.34;5078649;28;45421;-48
2023/12/01 00:39:50;;;;;;;;;49.00;33.00;;;;;6.90;74.08;99759.22;5078335;28;48494;-47
2023/12/01 00:42:17;;;;;;;;;57.50;41.75;;;;;6.86;74.75;99748.09;5078458;28;45264;-46
2023/12/01 00:44:44;;;;;;;;;50.00;40.25;;;;;6.89;74.50;99760.22;5078475;28;45181;-47
2023/12/01 00:47:09;;;;;;;;;44.50;36.50;;;;;6.83;74.42;99756.34;5078550;28;45350;-45
2023/12/01 00:49:35;;;;;;;;;56.50;42.50;;;;;6.87;74.66;99764.78;5077910;28;45573;-46
2023/12/01 00:52:00;;;;;;;;;44.75;41.00;;;;;6.76;73.96;99749.97;5078349;28;45381;-47
2023/12/01 00:54:25;;;;;;;;;54.50;39.25;;;;;6.79;74.14;99757.63;5078243;28;45399;-48
2023/12/01 00:56:50;;;;;;;;;44.25;36.00;;;;;6.75;73.92;99754.44;5078484;28;45454;-48
2023/12/01 00:59:16;;;;;;;;;45.25;38.25;;;;;6.84;74.52;99773.03;5076719;28;47413;-46
2023/12/01 01:01:41;;;;;;;;;49.25;38.00;;;;;6.88;74.32;99771.78;5078098;28;45512;-45
2023/12/01 01:04:07;;;;;;;;;59.75;44.50;;;;;6.89;74.17;99773.44;5078249;28;45338;-45
2023/12/01 01:06:32;;;;;;;;;48.50;36.00;;;;;6.89;74.03;99770.78;5078452;28;45319;-48
2023/12/01 01:08:57;;;;;;;;;45.00;34.00;;;;;6.88;74.30;99777.88;5077829;28;46901;-47
2023/12/01 01:11:22;;;;;;;;;42.75;36.75;;;;;6.84;74.29;99770.41;5077946;28;45421;-45
2023/12/01 01:13:48;;;;;;;;;48.75;34.75;;;;;6.84;73.40;99768.59;5078317;28;45421;-48
2023/12/01 01:16:13;;;;;;;;;48.75;35.50;;;;;6.78;74.07;99761.22;5077992;28;45475;-48
2023/12/01 01:18:39;;;;;;;;;44.00;26.50;;;;;6.80;74.39;99761.94;5078160;28;46887;-47
2023/12/01 01:21:04;;;;;;;;;44.75;37.75;;;;;6.79;73.89;99770.00;5077552;28;45361;-48
2023/12/01 01:23:29;;;;;;;;;40.50;31.75;;;;;6.77;73.88;99769.31;5077819;28;45422;-47
2023/12/01 01:25:55;;;;;;;;;48.75;38.75;;;;;6.78;73.57;99771.78;5078130;28;45330;-47
2023/12/01 01:28:20;;;;;;;;;39.75;38.50;;;;;6.79;74.14;99770.84;5075865;28;55472;-45
2023/12/01 01:30:45;;;;;;;;;50.50;35.75;;;;;6.81;74.14;99773.31;5077665;27;45451;-48
2023/12/01 01:33:11;;;;;;;;;53.25;34.25;;;;;6.81;73.85;99771.50;5077581;28;45734;-48
2023/12/01 01:35:36;;;;;;;;;51.75;41.50;;;;;6.79;73.95;99775.31;5077903;28;45173;-47
2023/12/01 01:38:01;;;;;;;;;45.00;35.25;;;;;6.81;73.81;99783.91;5077269;28;45419;-48
2023/12/01 01:40:27;;;;;;;;;51.25;39.00;;;;;6.80;73.59;99787.53;5077551;28;45468;-44
2023/12/01 01:42:52;;;;;;;;;59.00;36.00;;;;;6.77;73.77;99779.88;5077703;28;45502;-46
2023/12/01 01:45:18;;;;;;;;;54.75;35.25;;;;;6.79;73.56;99781.41;5077788;28;45184;-47
2023/12/01 01:47:43;;;;;;;;;55.50;40.50;;;;;6.82;74.05;99790.84;5077452;28;45353;-48
2023/12/01 01:50:08;;;;;;;;;55.50;36.75;;;;;6.79;73.93;99780.59;5076994;28;45457;-45
2023/12/01 01:52:36;;;;;;;;;38.75;35.00;;;;;6.79;73.69;99785.88;5077396;28;45382;-48
2023/12/01 01:55:02;;;;;;;;;51.25;36.75;;;;;6.76;73.55;99784.34;5077418;28;45448;-48
2023/12/01 01:57:28;;;;;;;;;44.00;30.75;;;;;6.73;73.25;99790.75;5076845;28;45377;-46
2023/12/01 01:59:54;;;;;;;;;41.00;33.50;;;;;6.67;74.13;99777.28;5076866;28;45323;-47
2023/12/01 02:02:19;;;;;;;;;59.75;40.75;;;;;6.73;73.98;99787.28;5076882;28;45797;-48
2023/12/01 02:04:45;;;;;;;;;50.50;39.50;;;;;6.72;74.04;99786.44;5077294;28;45506;-46
2023/12/01 02:07:26;;;;;;;;;49.50;40.50;;;;;6.69;74.30;99794.66;5076892;28;46143;-45
2023/12/01 02:09:51;;;;;;;;;55.75;40.25;;;;;6.72;74.25;99799.66;5076815;28;45463;-45
2023/12/01 02:12:17;;;;;;;;;62.25;43.00;;;;;6.71;74.02;99800.63;5077363;28;45496;-48
2023/12/01 02:14:42;;;;;;;;;43.00;30.75;;;;;6.71;74.49;99805.09;5077383;28;45453;-44
2023/12/01 02:17:07;;;;;;;;;47.00;34.75;;;;;6.70;73.80;99795.47;5076633;28;47127;-47
2023/12/01 02:19:33;;;;;;;;;52.50;40.50;;;;;6.67;74.38;99799.25;5076770;28;45381;-47
2023/12/01 02:21:58;;;;;;;;;54.75;36.00;;;;;6.68;74.20;99800.09;5077013;28;45371;-49
2023/12/01 02:24:23;;;;;;;;;45.25;37.50;;;;;6.68;73.86;99806.22;5077048;28;45385;-47
2023/12/01 02:26:49;;;;;;;;;58.00;40.00;;;;;6.67;74.15;99801.91;5076454;28;47222;-48
2023/12/01 02:29:14;;;;;;;;;55.50;41.25;;;;;6.67;73.68;99804.56;5076594;28;45402;-48
2023/12/01 02:31:39;;;;;;;;;57.75;39.25;;;;;6.67;73.86;99803.72;5076947;28;45334;-48
2023/12/01 02:34:05;;;;;;;;;53.50;40.00;;;;;6.59;74.17;99799.16;5077126;28;45470;-50
2023/12/01 02:36:31;;;;;;;;;59.25;40.00;;;;;6.62;74.13;99796.22;5076836;28;46205;-47
2023/12/01 02:38:56;;;;;;;;;60.25;43.50;;;;;6.65;74.02;99801.19;5076759;27;45392;-52
2023/12/01 02:41:22;;;;;;;;;47.50;35.75;;;;;6.68;73.66;99800.91;5076668;28;45347;-48
2023/12/01 02:43:47;;;;;;;;;50.00;39.75;;;;;6.64;73.73;99796.91;5077164;28;45273;-51
2023/12/01 02:46:13;;;;;;;;;45.50;32.75;;;;;6.59;74.00;99800.97;5076959;28;46978;-48
2023/12/01 02:48:39;;;;;;;;;60.25;42.25;;;;;6.62;73.80;99804.16;5077193;28;45573;-46
2023/12/01 02:51:06;;;;;;;;;46.00;37.75;;;;;6.65;73.64;99810.94;5077095;27;45385;-48
2023/12/01 02:53:32;;;;;;;;;44.75;40.00;;;;;6.63;73.54;99819.03;5077228;28;45368;-53
2023/12/01 02:55:57;;;;;;;;;52.50;38.25;;;;;6.61;73.05;99815.69;5077142;28;46412;-47
2023/12/01 02:58:24;;;;;;;;;45.00;38.25;;;;;6.61;73.89;99820.13;5076896;28;45501;-50
2023/12/01 03:00:49;;;;;;;;;60.00;40.00;;;;;6.58;73.25;99816.00;5076880;28;45390;-47
2023/12/01 03:03:14;;;;;;;;;47.25;28.25;;;;;6.58;73.75;99809.88;5077058;28;45379;-50
2023/12/01 03:05:40;;;;;;;;;55.00;41.00;;;;;6.56;73.11;99817.94;5076238;28;47059;-52
2023/12/01 03:08:05;;;;;;;;;44.25;32.25;;;;;6.55;73.35;99813.63;5076697;28;45348;-52
2023/12/01 03:10:30;;;;;;;;;44.25;36.00;;;;;6.56;72.82;99819.75;5076457;28;45302;-52
2023/12/01 03:12:56;;;;;;;;;49.50;35.25;;;;;6.55;73.36;99805.69;5076350;28;45421;-53
2023/12/01 03:15:21;;;;;;;;;54.25;39.00;;;;;6.52;72.65;99810.44;5076348;28;45425;-46
2023/12/01 03:17:47;;;;;;;;;52.50;39.75;;;;;6.54;73.09;99821.72;5076564;28;45372;-47
2023/12/01 03:20:14;;;;;;;;;56.00;40.50;;;;;6.55;72.78;99820.72;5076166;28;45493;-48
2023/12/01 03:22:44;;;;;;;;;53.00;39.00;;;;;6.52;72.75;99819.19;5076495;28;45431;-47
2023/12/01 03:25:09;;;;;;;;;49.00;37.75;;;;;6.52;72.82;99827.13;5074540;28;45434;-48
2023/12/01 03:27:46;;;;;;;;;48.50;37.00;;;;;6.52;72.92;99824.47;5075867;28;47802;-48
2023/12/01 03:30:13;;;;;;;;;55.25;37.75;;;;;6.53;72.73;99825.31;5076162;28;45480;-50
2023/12/01 03:32:52;;;;;;;;;50.75;39.25;;;;;6.45;73.06;99818.94;5076211;28;45228;-48
2023/12/01 03:35:22;;;;;;;;;44.50;34.00;;;;;6.47;72.65;99830.19;5075763;28;45777;-46
2023/12/01 03:37:48;;;;;;;;;51.75;37.25;;;;;6.46;72.90;99827.69;5074854;28;45450;-49
2023/12/01 03:40:14;;;;;;;;;53.50;39.75;;;;;6.49;72.43;99835.34;5076059;28;45382;-49
2023/12/01 03:42:42;;;;;;;;;56.50;40.50;;;;;6.47;73.08;99826.72;5076120;28;45331;-47
2023/12/01 03:45:11;;;;;;;;;55.00;41.25;;;;;6.47;72.36;99826.72;5076122;28;46280;-51
2023/12/01 03:47:38;;;;;;;;;56.50;39.50;;;;;6.45;72.51;99831.31;5075537;28;45522;-47
2023/12/01 03:50:04;;;;;;;;;41.00;35.75;;;;;6.41;73.33;99825.50;5075769;28;45373;-45
2023/12/01 03:52:30;;;;;;;;;56.50;42.50;;;;;6.37;72.54;99833.84;5076417;28;45347;-49
2023/12/01 03:54:56;;;;;;;;;63.50;43.00;;;;;6.30;72.97;99833.56;5079169;28;46262;-47
2023/12/01 03:57:21;;;;;;;;;55.00;40.25;;;;;6.30;72.62;99848.59;5079424;28;45316;-49
2023/12/01 03:59:46;;;;;;;;;44.25;33.25;;;;;6.25;72.88;99847.19;5079228;28;45470;-52
2023/12/01 04:02:12;;;;;;;;;44.75;32.25;;;;;6.17;72.69;99839.13;5079662;28;45161;-49
2023/12/01 04:04:38;;;;;;;;;49.00;37.75;;;;;6.24;73.04;99855.28;5079238;28;45312;-48
2023/12/01 04:07:07;;;;;;;;;37.75;27.75;;;;;6.23;72.97;99857.03;5078993;28;45346;-48
2023/12/01 04:09:35;;;;;;;;;55.25;40.00;;;;;6.27;73.00;99854.13;5079224;27;45177;-50
2023/12/01 04:12:00;;;;;;;;;40.75;34.50;;;;;6.27;72.48;99854.97;5079173;28;45536;-50
2023/12/01 04:14:27;;;;;;;;;55.00;35.75;;;;;6.25;72.93;99857.75;5078825;28;46226;-51
2023/12/01 04:16:52;;;;;;;;;47.00;33.75;;;;;6.27;72.73;99854.97;5078722;28;45399;-48
2023/12/01 04:19:18;;;;;;;;;55.50;41.75;;;;;6.28;72.56;99848.72;5078618;28;45515;-50
2023/12/01 04:21:43;;;;;;;;;46.75;34.75;;;;;6.27;72.13;99849.69;5078948;28;45468;-47
2023/12/01 04:24:08;;;;;;;;;50.50;41.25;;;;;6.25;72.30;99857.75;5078610;28;47097;-49
2023/12/01 04:26:34;;;;;;;;;49.75;38.25;;;;;6.24;72.38;99855.28;5078714;28;45476;-50
2023/12/01 04:28:59;;;;;;;;;52.25;37.00;;;;;6.10;72.27;99838.03;5078504;28;45343;-47
2023/12/01 04:31:24;;;;;;;;;45.25;33.25;;;;;6.23;72.43;99872.06;5078725;28;45429;-49
2023/12/01 04:33:49;;;;;;;;;51.75;37.75;;;;;6.21;72.66;99869.56;5076571;28;48228;-51
2023/12/01 04:36:15;;;;;;;;;47.00;36.25;;;;;6.07;72.30;99846.25;5076875;28;48334;-49
2023/12/01 04:38:40;;;;;;;;;37.50;33.25;;;;;6.21;72.70;99877.50;5078634;28;45318;-48
2023/12/01 04:41:09;;;;;;;;;41.00;37.25;;;;;6.21;71.89;99868.75;5078855;28;45393;-48
2023/12/01 04:43:39;;;;;;;;;63.25;38.00;;;;;6.23;72.09;99864.97;5078229;28;47146;-47
2023/12/01 04:46:05;;;;;;;;;46.50;30.50;;;;;6.23;72.17;99867.63;5078181;28;45421;-48
2023/12/01 04:48:31;;;;;;;;;49.25;40.75;;;;;6.25;72.22;99867.50;5078432;28;45340;-48
2023/12/01 04:50:56;;;;;;;;;53.25;41.25;;;;;6.21;72.22;99866.94;5078319;28;45489;-51
2023/12/01 04:53:22;;;;;;;;;54.75;39.75;;;;;6.16;71.88;99860.41;5078234;28;47122;-50
2023/12/01 04:55:47;;;;;;;;;52.25;38.50;;;;;6.14;72.48;99854.44;5078137;28;45481;-50
2023/12/01 04:58:12;;;;;;;;;53.75;36.50;;;;;6.23;71.92;99864.16;5076865;28;45315;-51
2023/12/01 05:00:38;;;;;;;;;47.50;37.25;;;;;6.21;71.82;99866.94;5078405;28;45557;-47
2023/12/01 05:03:07;;;;;;;;;53.75;39.50;;;;;6.24;71.78;99865.84;5077920;28;46107;-54
2023/12/01 05:05:38;;;;;;;;;48.00;40.50;;;;;6.25;71.58;99862.22;5078367;28;45400;-50
2023/12/01 05:08:05;;;;;;;;;50.50;40.00;;;;;6.24;71.95;99857.91;5077666;27;45247;-50
2023/12/01 05:10:32;;;;;;;;;61.25;42.00;;;;;6.21;71.65;99866.09;5077929;28;45420;-52
2023/12/01 05:12:59;;;;;;;;;50.00;37.50;;;;;6.15;72.22;99866.66;5078096;28;45456;-48
2023/12/01 05:15:27;;;;;;;;;49.75;40.25;;;;;6.16;71.32;99871.81;5077467;28;45349;-47
2023/12/01 05:17:57;;;;;;;;;48.25;36.00;;;;;6.21;72.29;99882.78;5077309;28;45410;-48
2023/12/01 05:20:25;;;;;;;;;44.75;37.75;;;;;6.22;71.24;99883.59;5077850;28;45436;-49
2023/12/01 05:23:00;;;;;;;;;52.75;41.50;;;;;6.20;71.36;99886.41;5077393;28;46973;-54
2023/12/01 05:25:27;;;;;;;;;47.25;29.00;;;;;6.18;71.66;99877.78;5077673;28;45390;-47
2023/12/01 05:27:57;;;;;;;;;54.50;41.75;;;;;6.12;71.71;99867.78;5077555;28;45361;-46
2023/12/01 05:30:24;;;;;;;;;50.50;38.75;;;;;6.15;71.52;99870.16;5077616;28;45323;-49
2023/12/01 05:32:51;;;;;;;;;55.50;40.75;;;;;6.14;71.28;99880.84;5077520;28;46368;-50
2023/12/01 05:35:18;;;;;;;;;57.25;40.75;;;;;6.13;71.37;99887.91;5077218;28;45453;-48
2023/12/01 05:37:47;;;;;;;;;50.50;41.25;;;;;6.11;71.30;99883.75;5077451;28;45203;-48
2023/12/01 05:40:23;;;;;;;;;50.25;41.25;;;;;6.11;71.50;99889.03;5077631;28;45330;-50
2023/12/01 05:42:50;;;;;;;;;52.50;42.50;;;;;6.07;71.31;99885.84;5077350;28;45435;-47
2023/12/01 05:45:16;;;;;;;;;65.25;45.50;;;;;6.08;71.60;99891.97;5077336;28;45384;-47
2023/12/01 05:47:43;;;;;;;;;60.50;49.00;;;;;6.04;71.59;99882.66;5077291;28;45481;-49
2023/12/01 05:50:14;;;;;;;;;50.00;39.75;;;;;6.05;71.61;99885.13;5077680;28;45337;-48
2023/12/01 05:52:41;;;;;;;;;53.25;43.00;;;;;6.02;71.70;99881.94;5076810;28;45325;-48
2023/12/01 05:55:14;;;;;;;;;61.00;41.50;;;;;6.03;71.88;99887.09;5077141;28;45689;-50
2023/12/01 05:57:42;;;;;;;;;58.00;47.00;;;;;5.91;71.44;99873.16;5077269;28;45365;-48
2023/12/01 06:00:12;;;;;;;;;66.00;41.00;;;;;5.89;71.44;99871.63;5077262;28;45291;-47
2023/12/01 06:02:39;;;;;;;;;61.75;44.75;;;;;5.96;71.80;99889.44;5076759;28;47054;-47
2023/12/01 06:05:05;;;;;;;;;50.50;39.75;;;;;5.98;72.24;99898.06;5076925;28;45388;-48
2023/12/01 06:07:30;;;;;;;;;60.75;44.75;;;;;5.98;72.17;99899.84;5076576;28;45425;-47
2023/12/01 06:09:57;;;;;;;;;60.25;44.25;;;;;5.97;71.84;99900.84;5077086;28;45471;-44
2023/12/01 06:12:22;;;;;;;;;60.25;45.00;;;;;5.96;72.39;99899.19;5076683;28;45418;-45
2023/12/01 06:14:47;;;;;;;;;52.50;41.25;;;;;5.95;72.18;99905.44;5075900;28;45369;-47
2023/12/01 06:17:13;;;;;;;;;56.75;43.75;;;;;5.96;71.94;99894.72;5076871;28;45444;-49
2023/12/01 06:19:38;;;;;;;;;57.25;42.00;;;;;5.99;72.31;99904.19;5075422;28;45326;-47
2023/12/01 06:22:04;;;;;;;;;71.50;50.50;;;;;5.99;72.29;99905.03;5076350;28;50734;-48
2023/12/01 06:24:33;;;;;;;;;61.00;47.50;;;;;6.00;72.26;99911.13;5076390;28;45334;-46
2023/12/01 06:27:00;;;;;;;;;58.25;45.00;;;;;6.02;72.04;99909.16;5076201;28;45307;-49
2023/12/01 06:29:25;;;;;;;;;73.00;46.00;;;;;6.02;71.96;99909.16;5096860;27;45592;-46
2023/12/01 06:31:50;;;;;;;;;64.50;45.25;;;;;6.00;72.43;99914.59;5096619;27;46216;-47
2023/12/01 06:34:16;;;;;;;;;65.75;48.00;;;;;6.01;72.05;99915.44;5096393;27;51766;-48
2023/12/01 06:36:41;;;;;;;;;58.50;41.75;;;;;6.02;71.83;99919.72;5096622;27;45351;-48
2023/12/01 06:39:10;;;;;;;;;63.00;45.75;;;;;6.02;72.26;99925.00;5097104;27;45439;-49
2023/12/01 06:41:37;;;;;;;;;66.75;42.25;;;;;6.00;71.78;99917.25;5096655;27;46338;-49
2023/12/01 06:44:03;;;;;;;;;79.25;51.75;;;;;6.02;71.88;99925.00;5096624;27;45474;-49
2023/12/01 06:46:29;;;;;;;;;56.25;45.75;;;;;6.04;71.93;99927.53;5096721;27;45360;-49
2023/12/01 06:48:54;;;;;;;;;60.25;45.75;;;;;6.04;71.83;99923.09;5096349;27;45545;-47
2023/12/01 06:51:19;;;;;;;;;63.00;44.50;;;;;6.02;71.83;99921.53;5096166;27;54950;-48
2023/12/01 06:53:45;;;;;;;;;62.00;44.25;;;;;6.02;71.89;99924.19;5096574;27;45428;-48
2023/12/01 06:56:10;;;;;;;;;59.75;42.00;;;;;6.00;71.97;99921.69;5096288;27;45397;-47
2023/12/01 06:58:35;;;;;;;;;59.75;46.25;;;;;6.01;71.67;99928.63;5096701;27;45453;-48
2023/12/01 07:01:01;;;;;;;;;52.00;41.25;;;;;5.98;72.03;99918.34;5077695;27;47322;-50
2023/12/01 07:03:29;;;;;;;;;55.00;42.50;;;;;6.00;71.37;99926.97;5077949;27;45514;-48
2023/12/01 07:05:55;;;;;;;;;61.00;42.50;;;;;5.96;71.67;99926.41;5096566;27;45331;-46
2023/12/01 07:08:20;;;;;;;;;59.00;42.50;;;;;5.97;71.46;99929.88;5096504;27;45315;-47
2023/12/01 07:10:46;;;;;;;;;59.75;45.00;;;;;5.96;71.68;99922.94;5096041;27;46250;-46
2023/12/01 07:13:11;;;;;;;;;64.00;46.75;;;;;5.98;71.45;99923.63;5096417;27;45348;-46
2023/12/01 07:15:37;;;;;;;;;60.00;37.50;;;;;5.95;71.53;99926.56;5096152;27;45300;-47
2023/12/01 07:18:04;;;;;;;;;64.50;46.25;;;;;5.89;71.55;99933.16;5096938;27;45496;-47
2023/12/01 07:20:33;;;;;;;;;50.50;39.25;;;;;5.79;72.37;99924.41;5096162;27;47001;-46
2023/12/01 07:22:59;;;;;;;;;57.75;42.25;;;;;5.85;71.52;99939.69;5096106;27;45306;-47
2023/12/01 07:25:25;;;;;;;;;55.25;43.25;;;;;5.85;71.77;99944.97;5096575;27;45297;-48
2023/12/01 07:27:58;;;;;;;;;54.50;45.00;;;;;5.87;71.71;99947.47;5098447;27;45337;-48
2023/12/01 07:30:23;;;;;;;;;64.75;41.75;;;;;5.86;71.16;99951.94;5099576;27;46276;-46
2023/12/01 07:32:50;;;;;;;;;64.50;45.25;;;;;5.84;71.77;99948.56;5099741;27;45421;-47
2023/12/01 07:35:16;;;;;;;;;52.00;41.25;;;;;5.81;71.55;99943.56;5099876;27;45338;-47
2023/12/01 07:37:43;;;;;;;;;60.50;44.25;;;;;5.79;71.65;99937.59;5100060;27;45414;-47
2023/12/01 07:40:10;;;;;;;;;62.75;47.25;;;;;5.83;72.28;99940.81;5099543;27;46529;-47
2023/12/01 07:42:35;;;;;;;;;53.00;40.75;;;;;5.82;72.20;99928.59;5081144;27;45484;-50
2023/12/01 07:45:01;;;;;;;;;62.25;45.00;;;;;5.91;71.96;99939.16;5099824;27;45329;-45
2023/12/01 07:47:26;;;;;;;;;68.50;44.50;;;;;5.95;71.92;99934.47;5100132;27;45373;-48
2023/12/01 07:49:51;;;;;;;;;64.75;41.00;;;;;5.96;71.25;99933.50;5099784;27;46299;-47
2023/12/01 07:52:17;;;;;;;;;65.00;47.50;;;;;5.96;71.32;99941.41;5099508;27;45354;-49
2023/12/01 07:54:42;;;;;;;;;58.50;43.00;;;;;5.97;71.59;99943.91;5099603;27;45383;-47
2023/12/01 07:57:09;;;;;;;;;55.00;40.50;;;;;5.98;71.52;99942.97;5099842;27;45461;-50
2023/12/01 07:59:36;;;;;;;;;63.50;46.00;;;;;5.99;71.52;99949.06;5099607;27;46222;-54
2023/12/01 08:02:01;;;;;;;;;68.25;46.25;;;;;5.98;71.52;99950.88;5099445;27;45387;-55
2023/12/01 08:04:27;;;;;;;;;65.00;44.50;;;;;5.96;71.20;99951.97;5099572;27;45374;-52
2023/12/01 08:06:52;;;;;;;;;77.25;49.50;;;;;5.97;70.82;99946.53;5099455;27;45219;-47
2023/12/01 08:09:17;;;;;;;;;65.50;45.75;;;;;5.95;71.05;99963.50;5099202;27;45349;-48
2023/12/01 08:11:43;;;;;;;;;59.25;43.25;;;;;5.91;70.92;99959.44;5081043;27;45398;-49
2023/12/01 08:14:10;;;;;;;;;63.25;45.25;;;;;5.93;71.23;99960.97;5080999;27;45477;-55
2023/12/01 08:16:35;;;;;;;;;58.00;41.25;;;;;5.87;71.24;99952.75;5099527;27;45531;-48
2023/12/01 08:19:01;;;;;;;;;58.25;40.00;;;;;5.94;71.30;99970.59;5098130;27;46058;-52
2023/12/01 08:21:26;;;;;;;;;53.75;40.25;;;;;5.86;70.87;99961.66;5099296;27;45408;-46
2023/12/01 08:23:52;;;;;;;;;11.50;11.50;;;;;5.96;70.71;99973.91;5099222;27;45511;-46
2023/12/01 08:26:22;;;;;;;;;52.25;34.75;;;;;5.96;70.34;99975.72;5099342;27;45462;-54
2023/12/01 08:28:47;;;;;;;;;59.50;38.50;;;;;5.93;70.64;99978.63;5098703;27;46244;-46
2023/12/01 08:31:12;;;;;;;;;58.75;42.00;;;;;5.94;70.74;99980.28;5098433;27;45391;-48
2023/12/01 08:33:38;;;;;;;;;52.75;40.75;;;;;5.92;70.50;99966.41;5099136;27;45393;-49
2023/12/01 08:36:03;;;;;;;;;45.25;40.25;;;;;5.91;70.47;99970.00;5099054;27;45371;-46
2023/12/01 08:38:29;;;;;;;;;62.75;44.50;;;;;5.95;70.67;99977.53;5098074;27;46880;-48
2023/12/01 08:40:54;;;;;;;;;51.50;38.50;;;;;5.95;70.43;99980.19;5098723;27;45256;-48
2023/12/01 08:43:19;;;;;;;;;53.00;40.25;;;;;5.93;70.33;99974.19;5098678;27;45315;-47
2023/12/01 08:45:45;;;;;;;;;46.50;37.25;;;;;5.97;70.18;99982.66;5098219;27;45491;-47
2023/12/01 08:48:10;;;;;;;;;51.25;38.00;;;;;6.00;69.51;99975.31;5085918;27;47581;-49
2023/12/01 08:50:35;;;;;;;;;54.00;45.00;;;;;5.97;70.25;99959.75;5075197;28;45292;-47
2023/12/01 08:53:00;;;;;;;;;57.75;45.00;;;;;6.16;69.71;99980.06;5074649;27;45407;-46
2023/12/01 08:55:26;;;;;;;;;57.25;43.50;;;;;6.21;69.60;99977.03;5075745;28;45339;-48
2023/12/01 08:57:51;;;;;;;;;55.25;42.50;;;;;6.25;68.94;99971.31;5074914;28;46201;-47
2023/12/01 09:00:20;;;;;;;;;69.50;45.75;;;;;6.28;69.14;99979.94;5075046;28;45520;-48
2023/12/01 09:02:48;;;;;;;;;62.00;41.50;;;;;6.23;69.06;99972.41;5075386;28;45420;-49
2023/12/01 09:05:13;;;;;;;;;56.50;39.50;;;;;6.22;69.14;99968.94;5075409;28;45427;-49
2023/12/01 09:07:39;;;;;;;;;86.00;61.00;;;;;6.27;69.54;99975.63;5075035;28;46467;-50
2023/12/01 09:10:05;;;;;;;;;65.75;44.00;;;;;6.17;68.95;99960.63;5075032;28;45629;-47
2023/12/01 09:12:30;;;;;;;;;63.50;46.75;;;;;6.26;68.95;99964.22;5074761;28;45433;-49
2023/12/01 09:14:56;;;;;;;;;49.75;43.25;;;;;6.26;69.16;99972.16;5075194;28;45401;-47
2023/12/01 09:17:22;;;;;;;;;59.00;42.75;;;;;6.30;69.17;99970.91;5075077;28;47004;-47
2023/12/01 09:19:47;;;;;;;;;63.50;43.50;;;;;6.33;68.71;99977.75;5074978;28;45290;-48
2023/12/01 09:22:12;;;;;;;;;55.75;34.00;;;;;6.32;68.76;99979.53;5075081;27;45502;-48
2023/12/01 09:24:38;;;;;;;;;60.50;44.00;;;;;6.32;68.74;99986.59;5065887;27;45586;-47
2023/12/01 09:27:03;;;;;;;;;53.50;41.00;;;;;6.30;68.42;99991.22;5074116;28;45530;-47
2023/12/01 09:29:29;;;;;;;;;61.25;43.25;;;;;6.33;69.18;99993.59;5074285;28;45382;-46
2023/12/01 09:31:55;;;;;;;;;66.00;43.75;;;;;6.34;68.73;99995.25;5074544;28;45857;-47
2023/12/01 09:34:21;;;;;;;;;62.00;41.75;;;;;6.30;68.49;99999.97;5074992;28;45432;-50
2023/12/01 09:36:46;;;;;;;;;63.75;45.00;;;;;6.31;68.11;100006.91;5073934;28;47094;-49
2023/12/01 09:39:11;;;;;;;;;58.00;43.00;;;;;6.29;68.06;100011.50;5074052;28;45666;-47
2023/12/01 09:41:38;;;;;;;;;61.50;44.50;;;;;6.27;68.37;100013.44;5074173;28;46037;-47
2023/12/01 09:44:05;;;;;;;;;51.50;33.25;;;;;6.23;68.58;100012.88;5074452;28;45519;-46
2023/12/01 09:46:35;;;;;;;;;66.75;45.25;;;;;6.22;68.22;100015.66;5074297;28;45517;-44
2023/12/01 09:49:04;;;;;;;;;65.00;49.25;;;;;6.19;68.61;100021.22;5073985;28;45419;-47
2023/12/01 09:51:29;;;;;;;;;67.75;46.50;;;;;6.05;68.65;99997.84;5055838;28;45484;-45
2023/12/01 09:53:55;;;;;;;;;61.00;41.00;;;;;6.17;68.58;100031.91;5074581;28;45473;-48
2023/12/01 09:56:21;;;;;;;;;63.25;47.25;;;;;6.17;68.87;100039.00;5074102;27;46298;-47
2023/12/01 09:58:47;;;;;;;;;64.00;43.00;;;;;6.15;69.09;100039.16;5073889;28;45742;-48
2023/12/01 10:01:13;;;;;;;;;57.50;44.00;;;;;6.16;68.60;100039.97;5073922;27;45471;-49
2023/12/01 10:03:39;;;;;;;;;65.50;47.00;;;;;6.15;69.03;100044.44;5073530;28;45679;-49
2023/12/01 10:06:07;;;;;;;;;54.50;41.00;;;;;6.15;68.70;100049.72;5073534;28;51862;-48
2023/12/01 10:08:34;;;;;;;;;53.25;40.00;;;;;6.14;68.47;100063.03;5073604;28;45893;-48
2023/12/01 10:10:59;;;;;;;;;61.25;43.25;;;;;6.09;68.56;100063.44;5073832;28;45450;-49
2023/12/01 10:13:38;;;;;;;;;66.00;50.00;;;;;6.02;68.64;100041.19;5073432;27;45595;-48
2023/12/01 10:16:04;;;;;;;;;53.25;41.75;;;;;6.13;68.64;100059.56;5088878;27;47114;-45
2023/12/01 10:18:29;;;;;;;;;62.25;44.25;;;;;6.16;68.95;100061.94;5073561;28;45517;-49
2023/12/01 10:21:02;;;;;;;;;59.00;39.75;;;;;6.20;69.02;100065.16;5074129;28;45435;-48
2023/12/01 10:23:28;;;;;;;;;70.00;48.50;;;;;6.18;68.80;100062.63;5073790;28;45371;-48
2023/12/01 10:25:54;;;;;;;;;63.50;46.00;;;;;6.17;68.18;100063.59;5073545;28;46468;-48
2023/12/01 10:28:21;;;;;;;;;55.00;41.50;;;;;6.17;68.14;100068.06;5073527;28;45644;-52
2023/12/01 10:30:57;;;;;;;;;60.00;40.25;;;;;6.18;68.72;100069.72;5088707;27;45441;-48
2023/12/01 10:33:24;;;;;;;;;66.75;47.50;;;;;6.16;68.14;100074.31;5073835;28;45638;-49
2023/12/01 10:36:04;;;;;;;;;69.00;47.00;;;;;6.13;68.28;100066.66;5073445;28;45524;-46
2023/12/01 10:38:30;;;;;;;;;59.00;43.25;;;;;6.08;68.30;100053.03;5073456;28;45430;-48
2023/12/01 10:40:57;;;;;;;;;55.75;41.00;;;;;6.15;68.50;100069.97;5074689;28;46310;-48
2023/12/01 10:43:23;;;;;;;;;63.25;46.75;;;;;6.13;67.98;100066.66;5074514;28;45525;-47
2023/12/01 10:45:49;;;;;;;;;69.00;46.00;;;;;6.07;68.12;100069.81;5073849;28;45608;-48
2023/12/01 10:48:18;;;;;;;;;50.25;33.50;;;;;6.02;67.95;100057.03;5073689;27;45410;-48
2023/12/01 10:50:43;;;;;;;;;62.50;45.00;;;;;5.95;68.58;100053.25;5073499;27;45868;-50
2023/12/01 10:53:10;;;;;;;;;64.75;45.00;;;;;5.98;68.33;100061.75;5073848;28;45713;-54
2023/12/01 10:55:36;;;;;;;;;58.25;42.25;;;;;5.97;68.14;100069.78;5073560;28;45491;-50
2023/12/01 10:58:06;;;;;;;;;63.00;42.75;;;;;5.95;68.41;100077.03;5073634;28;45400;-51
2023/12/01 11:00:31;;;;;;;;;48.25;37.25;;;;;5.92;68.58;100072.84;5073533;28;45418;-49
2023/12/01 11:03:00;;;;;;;;;63.25;45.75;;;;;5.91;68.28;100070.31;5077564;28;45391;-45
2023/12/01 11:05:30;;;;;;;;;52.75;41.00;;;;;5.89;68.43;100059.03;5078364;28;46494;-47
2023/12/01 11:08:30;;;;;;;;;63.25;42.00;;;;;5.92;68.27;100059.63;5080081;28;45312;-50
2023/12/01 11:11:14;;;;;;;;;57.00;45.00;;;;;5.95;68.56;100061.19;5079565;28;45497;-47
2023/12/01 11:14:04;;;;;;;;;57.75;45.75;;;;;6.00;68.60;100053.69;5079567;28;45375;-49
2023/12/01 11:16:31;;;;;;;;;60.25;47.00;;;;;6.05;68.63;100072.59;5078939;28;46122;-46
2023/12/01 11:18:56;;;;;;;;;62.50;48.75;;;;;6.08;68.63;100060.94;5075502;28;45787;-46
2023/12/01 11:21:22;;;;;;;;;67.50;45.75;;;;;6.08;68.41;100059.13;5078819;28;45392;-47